Time;durP1;ratioP1;P1;durP2;ratioP2;P2;SDS_P1;SDS_P2;PMS_P1;PMS_P2;Temp;Humidity;BMP_temperature;BMP_pressure;BME280_temperature;BME280_humidity;BME280_pressure;Samples;Min_cycle;Max_cycle;Signal;HPM_P1;HPM_P2
2023/03/17 00:02:42;;;;;;;8.80;2.30;;;;;;;6.49;84.25;99460.53;12216571;19;20031;-84
2023/03/17 00:06:44;;;;;;;4.22;2.10;;;;;;;6.48;84.38;99451.44;12213612;19;20077;-83
2023/03/17 00:10:46;;;;;;;4.70;2.20;;;;;;;6.49;84.53;99452.31;12190802;19;20010;-84
2023/03/17 00:14:48;;;;;;;2.50;1.27;;;;;;;6.50;83.97;99449.31;12209918;19;20397;-83
2023/03/17 00:18:51;;;;;;;5.05;2.25;;;;;;;6.52;83.91;99449.09;12213657;19;20066;-83
2023/03/17 00:22:56;;;;;;;3.78;1.98;;;;;;;6.55;83.75;99448.66;12181635;19;20007;-83
2023/03/17 00:26:58;;;;;;;4.70;2.10;;;;;;;6.55;83.77;99446.72;12203310;19;20016;-83
2023/03/17 00:31:05;;;;;;;4.00;2.13;;;;;;;6.54;83.73;99450.56;12204689;19;20010;-83
2023/03/17 00:35:27;;;;;;;5.28;2.00;;;;;;;6.54;83.92;99456.03;12181167;19;20002;-83
2023/03/17 00:39:28;;;;;;;4.60;2.37;;;;;;;6.50;84.09;99446.59;12203982;19;19998;-83
2023/03/17 00:43:31;;;;;;;7.60;1.90;;;;;;;6.46;84.40;99441.81;12180174;19;20122;-83
2023/03/17 00:47:33;;;;;;;5.13;2.67;;;;;;;6.43;84.36;99436.81;12200946;19;20026;-83
2023/03/17 00:51:34;;;;;;;5.60;2.10;;;;;;;6.39;84.59;99425.47;12202913;19;20070;-83
2023/03/17 00:55:36;;;;;;;3.95;1.98;;;;;;;6.33;84.71;99427.22;12178416;19;20043;-84
2023/03/17 00:59:41;;;;;;;4.47;2.05;;;;;;;6.29;84.58;99417.81;12202873;19;20018;-84
2023/03/17 01:03:44;;;;;;;3.97;2.20;;;;;;;6.28;84.79;99421.66;12201569;19;20385;-83
2023/03/17 01:07:53;;;;;;;4.88;2.30;;;;;;;6.27;84.51;99439.09;12166569;19;20028;-84
2023/03/17 01:11:55;;;;;;;5.18;1.60;;;;;;;6.21;84.26;99423.63;12227192;19;20058;-84
2023/03/17 01:15:57;;;;;;;5.35;1.88;;;;;;;6.17;84.39;99422.41;12207528;19;20010;-85
2023/03/17 01:20:01;;;;;;;5.85;2.00;;;;;;;6.14;85.40;99412.78;12184478;19;20011;-84
2023/03/17 01:24:04;;;;;;;5.47;1.88;;;;;;;6.08;86.16;99410.97;12205300;19;20373;-84
2023/03/17 01:28:06;;;;;;;2.97;1.50;;;;;;;6.08;85.59;99407.38;12203406;19;20543;-84
2023/03/17 01:32:07;;;;;;;3.47;1.77;;;;;;;6.10;85.43;99405.28;12181849;19;20034;-84
2023/03/17 01:36:09;;;;;;;4.97;2.35;;;;;;;6.11;86.13;99405.03;12201899;19;20010;-84
2023/03/17 01:40:16;;;;;;;3.90;2.22;;;;;;;6.11;85.78;99404.19;12201713;19;20014;-83
2023/03/17 01:44:18;;;;;;;5.47;1.95;;;;;;;6.10;86.10;99405.28;12179579;19;20007;-83
2023/03/17 01:48:21;;;;;;;7.93;2.15;;;;;;;6.06;86.34;99398.56;12201107;19;20386;-84
2023/03/17 01:52:23;;;;;;;5.80;1.92;;;;;;;6.03;86.30;99388.91;12197298;19;20369;-84
2023/03/17 01:56:24;;;;;;;3.85;1.80;;;;;;;6.02;86.91;99378.22;12198239;19;20010;-84
2023/03/17 02:00:26;;;;;;;3.95;2.00;;;;;;;5.99;87.11;99370.50;12200395;19;20022;-84
2023/03/17 02:04:30;;;;;;;3.72;1.75;;;;;;;5.94;87.67;99372.00;12176759;19;20033;-84
2023/03/17 02:08:31;;;;;;;5.43;2.10;;;;;;;5.92;87.73;99365.06;12198591;19;20002;-84
2023/03/17 02:12:35;;;;;;;5.60;2.45;;;;;;;5.90;87.68;99350.78;12194729;19;20017;-83
2023/03/17 02:16:36;;;;;;;5.13;2.00;;;;;;;5.86;88.14;99355.91;12176675;19;20014;-84
2023/03/17 02:20:38;;;;;;;5.32;2.17;;;;;;;5.84;88.00;99368.94;12199769;19;20173;-84
2023/03/17 02:24:44;;;;;;;5.28;2.10;;;;;;;5.80;88.56;99375.94;12196312;19;20440;-83
2023/03/17 02:28:47;;;;;;;3.70;1.95;;;;;;;5.75;88.60;99392.19;12175733;19;20031;-83
2023/03/17 02:32:49;;;;;;;6.07;1.83;;;;;;;5.63;89.93;99383.94;12195195;19;20007;-83
2023/03/17 02:36:51;;;;;;;4.15;2.17;;;;;;;5.54;90.30;99384.47;12199627;19;20014;-83
2023/03/17 02:40:53;;;;;;;4.65;2.00;;;;;;;5.45;90.96;99384.75;12176783;19;20006;-84
2023/03/17 02:44:54;;;;;;;2.95;1.60;;;;;;;5.39;90.98;99382.09;12207708;19;20007;-84
2023/03/17 02:48:56;;;;;;;2.53;1.52;;;;;;;5.36;91.08;99374.38;12207698;19;20030;-84
2023/03/17 02:52:58;;;;;;;4.13;2.00;;;;;;;5.32;91.42;99354.84;12181810;19;20031;-84
2023/03/17 02:57:00;;;;;;;3.28;1.90;;;;;;;5.29;91.82;99355.28;12200905;19;20377;-83
2023/03/17 03:01:02;;;;;;;5.70;2.33;;;;;;;5.23;92.13;99339.81;12206867;19;20460;-84
2023/03/17 03:05:07;;;;;;;6.00;2.30;;;;;;;5.17;91.98;99329.78;12181904;19;20035;-84
2023/03/17 03:09:10;;;;;;;4.68;2.47;;;;;;;5.12;92.08;99318.72;12209151;19;20017;-83
2023/03/17 03:13:12;;;;;;;5.07;1.98;;;;;;;5.07;91.91;99321.28;12206475;19;20093;-83
2023/03/17 03:17:14;;;;;;;6.00;2.50;;;;;;;5.01;92.20;99326.59;12184722;19;20003;-83
2023/03/17 03:21:16;;;;;;;5.18;1.88;;;;;;;4.97;92.08;99335.47;12204470;19;20026;-83
2023/03/17 03:25:18;;;;;;;3.95;1.98;;;;;;;4.92;92.20;99327.94;12207950;19;20558;-83
2023/03/17 03:29:19;;;;;;;3.90;2.05;;;;;;;4.87;92.13;99330.50;12184343;19;20026;-83
2023/03/17 03:33:21;;;;;;;4.50;1.85;;;;;;;4.75;92.19;99338.59;12205252;19;20011;-82
2023/03/17 03:37:23;;;;;;;3.47;1.88;;;;;;;4.64;93.01;99352.13;12213244;19;20014;-82
2023/03/17 03:41:25;;;;;;;5.38;2.10;;;;;;;4.52;94.04;99349.28;12214351;19;20010;-82
2023/03/17 03:45:27;;;;;;;6.55;2.03;;;;;;;4.41;94.64;99352.75;12208639;19;20081;-83
2023/03/17 03:49:28;;;;;;;3.00;1.77;;;;;;;4.34;95.17;99353.63;12186112;19;20487;-83
2023/03/17 03:53:30;;;;;;;3.97;2.20;;;;;;;4.29;95.58;99333.53;12203568;19;20003;-82
2023/03/17 03:57:32;;;;;;;4.97;2.17;;;;;;;4.21;95.40;99334.59;12206608;19;20003;-83
2023/03/17 04:01:34;;;;;;;3.75;2.10;;;;;;;4.15;95.91;99343.66;12188996;19;20468;-83
2023/03/17 04:05:35;;;;;;;6.23;2.17;;;;;;;4.11;96.01;99332.38;12204408;19;20037;-83
2023/03/17 04:09:38;;;;;;;3.35;2.20;;;;;;;4.07;96.64;99325.66;12209340;19;20030;-83
2023/03/17 04:13:39;;;;;;;5.95;2.05;;;;;;;4.06;96.91;99334.09;12189298;19;20037;-83
2023/03/17 04:17:41;;;;;;;5.43;2.35;;;;;;;4.03;97.05;99337.25;12219572;19;20392;-83
2023/03/17 04:21:43;;;;;;;6.00;2.83;;;;;;;4.00;97.47;99326.78;12260693;19;19999;-82
2023/03/17 04:25:45;;;;;;;4.70;2.30;;;;;;;3.96;97.74;99328.28;12252154;19;20053;-82
2023/03/17 04:29:47;;;;;;;6.13;2.63;;;;;;;3.88;98.32;99327.47;12277661;19;19995;-82
2023/03/17 04:33:49;;;;;;;8.60;2.63;;;;;;;3.82;99.29;99325.63;12247301;19;20006;-82
2023/03/17 04:37:50;;;;;;;4.68;2.13;;;;;;;3.78;99.65;99316.22;12185733;19;20039;-83
2023/03/17 04:41:52;;;;;;;4.35;2.30;;;;;;;3.78;99.43;99326.28;12202215;19;20007;-84
2023/03/17 04:45:54;;;;;;;4.57;2.40;;;;;;;3.74;99.72;99320.41;12198955;19;20094;-83
2023/03/17 04:49:55;;;;;;;9.30;2.60;;;;;;;3.70;99.93;99308.28;12176095;19;20007;-83
2023/03/17 04:53:57;;;;;;;5.90;3.00;;;;;;;3.65;100.00;99311.66;12192087;19;20535;-82
2023/03/17 04:57:59;;;;;;;5.15;2.35;;;;;;;3.66;100.00;99312.50;12199509;19;20406;-83
2023/03/17 05:02:01;;;;;;;4.22;2.35;;;;;;;3.63;100.00;99321.94;12182700;19;20077;-83
2023/03/17 05:06:05;;;;;;;4.53;2.17;;;;;;;3.58;100.00;99332.66;12200008;19;20064;-83
2023/03/17 05:10:08;;;;;;;5.05;2.10;;;;;;;3.50;100.00;99349.22;12200690;19;20003;-83
2023/03/17 05:14:10;;;;;;;6.18;2.83;;;;;;;3.45;100.00;99345.47;12180593;19;20059;-83
2023/03/17 05:18:12;;;;;;;5.78;2.47;;;;;;;3.38;100.00;99364.56;12200616;19;20003;-83
2023/03/17 05:22:14;;;;;;;7.20;2.55;;;;;;;3.31;100.00;99369.22;12205234;19;20203;-83
2023/03/17 05:26:16;;;;;;;6.63;2.70;;;;;;;3.26;100.00;99360.84;12198652;19;20007;-84
2023/03/17 05:30:17;;;;;;;3.72;2.35;;;;;;;3.20;100.00;99371.53;12217250;19;20019;-84
2023/03/17 05:34:19;;;;;;;5.27;2.33;;;;;;;3.09;100.00;99388.50;12208736;19;20007;-84
2023/03/17 05:38:21;;;;;;;4.53;2.33;;;;;;;3.02;100.00;99393.13;12185666;19;20035;-84
2023/03/17 05:42:23;;;;;;;4.50;2.43;;;;;;;2.95;100.00;99384.16;12207799;19;20025;-84
2023/03/17 05:46:25;;;;;;;8.05;4.00;;;;;;;2.92;100.00;99382.69;12179372;19;20029;-83
2023/03/17 05:50:27;;;;;;;3.13;1.97;;;;;;;2.92;100.00;99387.28;12202041;19;20042;-84
2023/03/17 05:54:29;;;;;;;5.63;2.70;;;;;;;2.89;100.00;99383.09;12201254;19;20031;-84
2023/03/17 05:58:31;;;;;;;5.15;2.58;;;;;;;2.88;100.00;99380.56;12182952;19;20011;-84
2023/03/17 06:02:34;;;;;;;5.25;2.33;;;;;;;2.86;100.00;99377.25;12201777;19;20621;-84
2023/03/17 06:06:36;;;;;;;7.90;2.20;;;;;;;2.88;100.00;99383.31;12201350;19;20360;-83
2023/03/17 06:10:38;;;;;;;8.70;2.45;;;;;;;2.91;100.00;99372.00;12185541;19;20596;-83
2023/03/17 06:14:39;;;;;;;4.88;2.50;;;;;;;2.95;100.00;99367.81;12212417;19;20061;-83
2023/03/17 06:18:41;;;;;;;5.32;2.40;;;;;;;3.02;100.00;99365.09;12223686;19;20488;-83
2023/03/17 06:22:44;;;;;;;4.63;2.57;;;;;;;3.10;100.00;99362.13;12205728;19;20034;-83
2023/03/17 06:27:03;;;;;;;7.55;3.05;;;;;;;3.23;100.00;99369.44;12222696;19;20023;-83
2023/03/17 06:31:05;;;;;;;6.72;2.58;;;;;;;3.37;100.00;99368.34;12223858;19;20034;-84
2023/03/17 06:35:08;;;;;;;7.43;3.92;;;;;;;3.49;100.00;99379.44;12199217;19;20007;-84
2023/03/17 06:39:14;;;;;;;6.90;3.63;;;;;;;3.55;100.00;99382.13;12225001;19;20007;-84
2023/03/17 06:43:18;;;;;;;5.97;3.07;;;;;;;3.64;100.00;99374.56;12228840;19;20002;-84
2023/03/17 06:47:20;;;;;;;9.15;4.13;;;;;;;3.76;100.00;99372.00;12206400;19;20483;-84
2023/03/17 06:51:25;;;;;;;8.68;4.03;;;;;;;3.86;100.00;99372.34;12231247;19;20014;-83
2023/03/17 06:55:27;;;;;;;8.48;5.03;;;;;;;4.00;100.00;99384.88;12208219;19;20531;-83
2023/03/17 06:59:30;;;;;;;8.95;5.32;;;;;;;4.16;100.00;99382.69;12226763;19;20006;-84
2023/03/17 07:03:32;;;;;;;7.65;4.50;;;;;;;4.37;100.00;99384.22;12232258;19;20034;-83
2023/03/17 07:07:38;;;;;;;5.93;3.60;;;;;;;4.62;100.00;99385.09;12253933;19;19999;-82
2023/03/17 07:11:40;;;;;;;6.93;3.00;;;;;;;4.90;100.00;99390.13;12276514;19;19991;-83
2023/03/17 07:15:44;;;;;;;5.38;2.88;;;;;;;5.19;100.00;99404.97;12271502;19;19994;-83
2023/03/17 07:19:46;;;;;;;5.85;3.28;;;;;;;5.46;100.00;99391.06;12253987;19;20027;-83
2023/03/17 07:23:48;;;;;;;7.88;3.85;;;;;;;5.77;100.00;99387.34;12271847;19;20006;-83
2023/03/17 07:27:50;;;;;;;5.82;2.90;;;;;;;6.08;99.33;99374.56;12259052;19;20006;-83
2023/03/17 07:31:52;;;;;;;7.60;3.00;;;;;;;6.45;98.27;99375.28;12236593;19;20434;-83
2023/03/17 07:35:54;;;;;;;6.30;3.30;;;;;;;6.75;96.86;99391.69;12249458;19;20006;-83
2023/03/17 07:39:56;;;;;;;7.57;2.80;;;;;;;7.02;95.95;99386.59;12223487;19;20648;-84
2023/03/17 07:43:58;;;;;;;5.75;2.92;;;;;;;7.33;95.19;99375.53;12205725;19;20025;-82
2023/03/17 07:48:01;;;;;;;6.47;3.20;;;;;;;7.61;94.12;99372.84;12211300;19;20024;-84
2023/03/17 07:52:03;;;;;;;6.75;3.63;;;;;;;7.90;91.58;99362.75;12227133;19;20014;-85
2023/03/17 07:56:05;;;;;;;8.85;3.17;;;;;;;8.20;88.97;99356.22;12194549;19;20039;-85
2023/03/17 08:00:08;;;;;;;6.17;3.17;;;;;;;8.55;87.93;99349.75;12217986;19;20023;-86
2023/03/17 08:04:13;;;;;;;6.32;3.08;;;;;;;8.87;85.00;99366.50;12217642;19;20086;-86
2023/03/17 08:08:15;;;;;;;6.35;3.40;;;;;;;9.09;81.60;99375.63;12202623;19;20027;-86
2023/03/17 08:12:19;;;;;;;5.18;3.03;;;;;;;9.37;81.07;99371.13;12240840;19;20015;-86
2023/03/17 08:16:20;;;;;;;13.27;4.22;;;;;;;9.69;79.57;99367.69;12229187;19;20048;-86
2023/03/17 08:20:23;;;;;;;7.15;3.20;;;;;;;10.08;77.01;99368.47;12209392;19;20018;-86
2023/03/17 08:24:25;;;;;;;6.23;3.47;;;;;;;10.42;74.31;99377.41;12230631;19;21035;-86
2023/03/17 08:28:28;;;;;;;7.00;3.30;;;;;;;10.70;72.63;99372.72;12209452;19;20483;-85
2023/03/17 08:32:30;;;;;;;8.43;3.45;;;;;;;11.05;70.88;99371.38;12225373;19;20267;-82
2023/03/17 08:36:32;;;;;;;8.20;3.80;;;;;;;11.28;69.51;99373.75;12212963;19;20007;-84
2023/03/17 08:40:35;;;;;;;8.45;4.20;;;;;;;11.35;68.76;99357.81;12223481;19;20011;-83
2023/03/17 08:44:37;;;;;;;7.90;3.60;;;;;;;11.54;67.85;99358.22;12218228;19;20007;-83
2023/03/17 08:48:40;;;;;;;9.98;4.47;;;;;;;11.57;66.67;99357.69;12208780;19;20871;-84
2023/03/17 08:52:44;;;;;;;5.82;3.50;;;;;;;11.61;66.10;99347.75;12187103;19;20477;-83
2023/03/17 08:56:46;;;;;;;7.30;3.65;;;;;;;11.90;66.61;99357.56;12214862;19;20460;-84
2023/03/17 09:00:48;;;;;;;9.43;4.90;;;;;;;11.92;64.32;99347.91;12251754;19;20015;-85
2023/03/17 09:04:50;;;;;;;6.93;4.13;;;;;;;12.13;64.62;99337.75;12252384;19;20022;-84
2023/03/17 09:08:55;;;;;;;9.35;4.57;;;;;;;12.47;63.11;99323.50;12226760;19;20007;-84
2023/03/17 09:13:01;;;;;;;8.88;4.63;;;;;;;12.67;60.91;99347.53;12227106;19;20010;-86
2023/03/17 09:17:03;;;;;;;7.70;4.45;;;;;;;12.97;61.25;99346.75;12203016;19;20036;-86
2023/03/17 09:21:08;;;;;;;9.40;5.15;;;;;;;13.44;58.74;99345.59;12214760;19;20011;-85
2023/03/17 09:25:10;;;;;;;;;;;;;;;13.76;57.93;99350.78;12212292;19;20078;-86
2023/03/17 09:29:11;;;;;;;6.22;3.92;;;;;;;13.95;57.74;99334.38;12195834;19;20267;-86
2023/03/17 09:33:15;;;;;;;6.88;3.90;;;;;;;14.24;57.89;99331.72;12215302;19;20016;-87
2023/03/17 09:37:17;;;;;;;8.40;4.13;;;;;;;14.42;56.80;99315.53;12225690;19;20014;-87
2023/03/17 09:41:32;;;;;;;6.53;3.83;;;;;;;14.45;55.96;99315.78;12225399;19;20547;-89
2023/03/17 09:45:37;;;;;;;7.15;3.95;;;;;;;14.46;55.84;99320.22;12221922;19;20027;-86
2023/03/17 09:49:43;;;;;;;8.43;4.22;;;;;;;14.52;54.65;99305.25;12196141;19;19998;-87
2023/03/17 09:53:59;;;;;;;9.73;5.82;;;;;;;14.44;53.24;99305.81;12214089;19;20014;-86
2023/03/17 09:58:02;;;;;;;6.97;3.80;;;;;;;14.72;53.88;99301.50;12211362;19;20342;-87
2023/03/17 10:02:22;;;;;;;12.20;6.50;;;;;;;14.96;52.68;99292.41;12192483;19;20025;-86
2023/03/17 10:06:33;;;;;;;8.07;4.95;;;;;;;15.26;51.82;99285.75;12215299;19;20038;-86
2023/03/17 10:10:52;;;;;;;11.83;5.20;;;;;;;15.65;51.18;99282.81;12227546;19;20013;-88
2023/03/17 10:15:02;;;;;;;8.50;4.72;;;;;;;15.73;50.38;99286.88;12268681;19;20023;-88
2023/03/17 10:19:12;;;;;;;8.77;4.57;;;;;;;15.77;50.39;99290.75;12250966;19;20017;-86
2023/03/17 10:23:19;;;;;;;7.97;4.30;;;;;;;15.94;49.32;99288.31;12190119;19;20011;-86
2023/03/17 10:27:21;;;;;;;10.43;4.65;;;;;;;16.20;49.29;99298.22;12197008;19;20763;-86
2023/03/17 10:31:31;;;;;;;;;;;;;;;16.32;49.45;99290.25;12194874;19;22221;-87
2023/03/17 10:35:36;;;;;;;8.02;3.80;;;;;;;16.55;48.09;99283.78;12201540;19;20359;-87
2023/03/17 10:39:51;;;;;;;8.15;4.28;;;;;;;16.83;47.66;99276.41;12203816;19;19999;-87
2023/03/17 10:43:52;;;;;;;9.32;4.55;;;;;;;16.98;46.14;99285.63;12177625;19;20559;-86
2023/03/17 10:47:56;;;;;;;8.48;4.15;;;;;;;17.28;45.74;99273.94;12201491;19;20423;-88
2023/03/17 10:51:59;;;;;;;6.90;4.25;;;;;;;17.40;44.76;99269.81;12201995;19;20011;-87
2023/03/17 10:56:08;;;;;;;;;;;;;;;17.59;44.28;99278.91;12173900;19;20363;-87
2023/03/17 11:00:15;;;;;;;7.00;4.15;;;;;;;17.85;43.80;99270.06;12198619;19;20269;-86
2023/03/17 11:04:40;;;;;;;8.45;4.30;;;;;;;17.96;43.25;99274.25;12209277;19;20022;-87
2023/03/17 11:08:50;;;;;;;7.47;4.40;;;;;;;17.80;43.13;99272.97;12193685;19;20022;-86
2023/03/17 11:13:00;;;;;;;10.13;4.07;;;;;;;17.96;43.97;99269.50;12211935;19;20031;-87
2023/03/17 11:17:15;;;;;;;6.40;3.75;;;;;;;18.12;43.73;99274.78;12195970;19;20023;-87
2023/03/17 11:21:28;;;;;;;8.07;4.15;;;;;;;18.03;42.00;99271.09;12221614;19;20451;-86
2023/03/17 11:25:36;;;;;;;9.65;3.92;;;;;;;18.07;42.78;99270.13;12201731;19;20355;-89
2023/03/17 11:30:04;;;;;;;7.32;4.45;;;;;;;18.16;41.50;99262.66;12223138;19;20374;-87
2023/03/17 11:34:24;;;;;;;8.50;4.65;;;;;;;18.48;41.40;99249.66;12217728;19;20021;-87
2023/03/17 11:38:30;;;;;;;10.07;5.25;;;;;;;18.73;41.40;99250.16;12194212;19;20081;-87
2023/03/17 11:42:38;;;;;;;6.68;4.57;;;;;;;18.92;41.50;99242.47;12218077;19;20371;-88
2023/03/17 11:47:20;;;;;;;9.77;4.47;;;;;;;19.27;41.35;99231.44;12216109;19;20018;-87
2023/03/17 11:51:29;;;;;;;7.70;4.20;;;;;;;19.44;40.84;99228.75;12232351;19;20011;-86
2023/03/17 11:55:47;;;;;;;7.03;4.78;;;;;;;19.66;41.03;99215.84;12204738;19;20585;-86
2023/03/17 12:00:27;;;;;;;8.38;4.53;;;;;;;19.91;40.77;99217.06;12225614;19;20075;-85
2023/03/17 12:04:35;;;;;;;7.78;3.63;;;;;;;20.31;41.52;99202.94;12219349;19;20002;-85
2023/03/17 12:08:45;;;;;;;9.50;4.00;;;;;;;20.35;38.38;99207.56;12250365;19;20029;-85
2023/03/17 12:13:10;;;;;;;8.73;4.30;;;;;;;20.23;38.20;99207.41;12229549;19;20103;-86
2023/03/17 12:17:20;;;;;;;9.65;3.97;;;;;;;20.18;38.39;99207.56;12211975;19;20010;-86
2023/03/17 12:21:40;;;;;;;8.85;4.20;;;;;;;20.11;38.76;99198.81;12230360;19;20014;-86
2023/03/17 12:25:53;;;;;;;7.63;4.35;;;;;;;20.20;38.28;99194.88;12206122;19;20002;-86
2023/03/17 12:30:01;;;;;;;;;;;;;;;20.21;37.05;99187.31;12230991;19;20024;-87
2023/03/17 12:34:29;;;;;;;8.55;3.78;;;;;;;20.32;35.29;99187.81;12227830;19;19925;-86
2023/03/17 12:38:42;;;;;;;6.45;3.00;;;;;;;20.25;34.58;99180.72;12206720;19;20003;-86
2023/03/17 12:42:57;;;;;;;4.70;2.80;;;;;;;20.17;33.55;99189.94;12225211;19;20014;-85
2023/03/17 12:47:25;;;;;;;5.43;2.65;;;;;;;20.55;33.82;99180.88;12200349;19;20078;-85
2023/03/17 12:51:43;;;;;;;10.75;3.42;;;;;;;20.69;32.70;99177.91;12223643;19;20018;-86
2023/03/17 12:55:50;;;;;;;6.28;2.97;;;;;;;20.73;33.31;99176.06;12202245;19;20010;-86
2023/03/17 13:00:14;;;;;;;5.63;2.72;;;;;;;20.58;32.64;99171.81;12220115;19;20003;-86
2023/03/17 13:05:08;;;;;;;9.75;3.70;;;;;;;20.77;32.66;99170.66;12227955;19;20097;-88
2023/03/17 13:09:27;;;;;;;6.35;3.15;;;;;;;20.76;32.83;99166.19;12122113;19;2004276;-86
2023/03/17 13:13:53;;;;;;;8.40;3.22;;;;;;;20.59;33.11;99153.06;12206085;19;20018;-86
2023/03/17 13:18:12;;;;;;;5.65;2.92;;;;;;;20.49;32.78;99154.19;12223826;19;20014;-86
2023/03/17 13:22:20;;;;;;;9.13;3.22;;;;;;;20.42;33.18;99149.09;12227564;19;20066;-87
2023/03/17 13:27:00;;;;;;;5.68;2.63;;;;;;;20.36;33.02;99144.03;12212217;19;20010;-85
2023/03/17 13:31:31;;;;;;;5.60;2.15;;;;;;;20.12;32.81;99136.97;12234174;19;20603;-85
2023/03/17 13:40:51;;;;;;;5.72;2.58;;;;;;;19.82;34.10;99127.59;12258666;19;20018;-87
2023/03/17 13:45:16;;;;;;;5.10;2.60;;;;;;;19.81;33.96;99134.34;12266814;19;20072;-86
2023/03/17 13:49:18;;;;;;;4.32;2.38;;;;;;;19.76;33.82;99120.50;12224779;19;20024;-85
2023/03/17 13:53:31;;;;;;;6.45;2.33;;;;;;;19.77;33.83;99124.94;12198802;19;20086;-85
2023/03/17 13:58:07;;;;;;;7.05;2.30;;;;;;;19.76;33.60;99120.50;12220813;19;20505;-84
2023/03/17 14:02:17;;;;;;;7.10;2.10;;;;;;;19.67;33.13;99116.91;12205992;19;20027;-86
2023/03/17 14:06:25;;;;;;;5.47;1.63;;;;;;;19.45;33.27;99110.22;12238375;19;20038;-86
2023/03/17 14:16:45;;;;;;;3.13;1.40;;;;;;;19.34;33.80;99106.13;12228803;19;20039;-85
2023/03/17 14:20:59;;;;;;;2.37;1.27;;;;;;;19.35;33.75;99108.56;12241315;19;20014;-87
2023/03/17 14:25:07;;;;;;;3.67;1.40;;;;;;;19.34;32.96;99097.75;12266434;19;20247;-85
2023/03/17 14:29:15;;;;;;;3.90;1.80;;;;;;;19.35;33.29;99097.41;12244470;19;20015;-86
2023/03/17 14:33:24;;;;;;;3.22;1.30;;;;;;;19.33;33.26;99096.06;12264220;19;20002;-86
2023/03/17 14:37:27;;;;;;;2.65;1.30;;;;;;;19.31;33.70;99099.22;12252490;19;20007;-85
2023/03/17 14:41:29;;;;;;;2.80;1.42;;;;;;;19.29;33.08;99090.31;12244533;19;20382;-85
2023/03/17 14:45:57;;;;;;;3.88;1.40;;;;;;;19.16;33.37;99093.28;12237292;19;20022;-85
2023/03/17 14:50:00;;;;;;;4.97;1.55;;;;;;;19.06;33.60;99091.56;12214211;19;20012;-84
2023/03/17 14:54:04;;;;;;;2.88;1.25;;;;;;;18.87;33.07;99089.06;12239327;19;20066;-86
2023/03/17 14:58:21;;;;;;;2.70;1.48;;;;;;;18.72;33.43;99081.91;12236047;19;20006;-85
2023/03/17 15:02:36;;;;;;;2.22;1.30;;;;;;;18.62;33.78;99071.84;12213235;19;20685;-85
2023/03/17 15:06:56;;;;;;;4.25;1.58;;;;;;;18.47;34.21;99063.88;12230613;19;20015;-87
2023/03/17 15:11:00;;;;;;;3.33;1.08;;;;;;;18.41;34.14;99054.00;12208338;19;20002;-84
2023/03/17 15:15:27;;;;;;;3.20;1.10;;;;;;;18.36;34.34;99052.19;12226552;19;20046;-85
2023/03/17 15:19:41;;;;;;;5.50;1.20;;;;;;;18.30;34.48;99052.66;12208318;19;20025;-86
2023/03/17 15:23:42;;;;;;;3.20;1.42;;;;;;;18.19;35.27;99058.47;12231452;19;20010;-85
2023/03/17 15:27:45;;;;;;;7.33;1.37;;;;;;;18.09;35.02;99055.97;12228607;19;20006;-85
2023/03/17 15:31:47;;;;;;;2.80;1.35;;;;;;;18.04;35.60;99056.09;12209683;19;20007;-85
2023/03/17 15:35:49;;;;;;;3.20;1.02;;;;;;;18.02;36.19;99057.53;12223448;19;20007;-84
2023/03/17 15:39:53;;;;;;;2.40;0.98;;;;;;;18.01;35.96;99070.66;12226596;19;21068;-87
2023/03/17 15:43:56;;;;;;;6.78;1.60;;;;;;;17.99;35.96;99064.56;12203727;19;20021;-86
2023/03/17 15:47:59;;;;;;;3.45;1.77;;;;;;;17.93;35.97;99057.47;12223303;19;20014;-85
2023/03/17 15:52:01;;;;;;;3.47;1.20;;;;;;;17.82;35.81;99062.50;12229223;19;20103;-85
2023/03/17 15:56:07;;;;;;;3.95;1.30;;;;;;;17.72;36.23;99060.72;12206110;19;21329;-85
2023/03/17 16:00:18;;;;;;;2.97;1.30;;;;;;;17.60;35.71;99063.25;12242162;19;20064;-85
2023/03/17 16:08:39;;;;;;;4.82;2.05;;;;;;;17.31;36.02;99066.44;12256285;19;20002;-85
2023/03/17 16:12:41;;;;;;;3.00;1.70;;;;;;;17.25;36.47;99073.25;12230368;19;20027;-85
2023/03/17 16:16:44;;;;;;;9.45;2.17;;;;;;;17.16;37.61;99075.13;12194965;19;20563;-85
2023/03/17 16:20:49;;;;;;;4.70;2.45;;;;;;;17.04;37.66;99078.44;12215977;19;20781;-85
2023/03/17 16:24:51;;;;;;;4.50;2.03;;;;;;;16.90;37.88;99088.75;12219283;19;20539;-85
2023/03/17 16:28:54;;;;;;;5.17;1.97;;;;;;;16.77;38.70;99087.59;12196508;19;20086;-84
2023/03/17 16:32:59;;;;;;;5.63;3.13;;;;;;;16.62;39.12;99080.34;12220319;19;20019;-86
2023/03/17 16:37:02;;;;;;;4.80;2.65;;;;;;;16.48;39.91;99085.06;12219368;19;20031;-86
2023/03/17 16:41:14;;;;;;;6.47;2.80;;;;;;;16.32;40.27;99081.75;12193911;19;20011;-85
2023/03/17 16:45:25;;;;;;;4.05;2.10;;;;;;;16.18;40.46;99084.50;12219491;19;20003;-86
2023/03/17 16:49:28;;;;;;;9.23;3.22;;;;;;;16.08;41.30;99093.00;12188658;19;20003;-85
2023/03/17 16:53:31;;;;;;;6.18;2.65;;;;;;;15.92;42.08;99095.22;12204931;19;19999;-84
2023/03/17 16:57:33;;;;;;;7.20;3.00;;;;;;;15.82;42.21;99090.63;12202312;19;20019;-85
2023/03/17 17:01:34;;;;;;;5.28;2.50;;;;;;;15.72;43.07;99093.59;12186823;19;20006;-85
2023/03/17 17:05:38;;;;;;;4.97;2.30;;;;;;;15.56;44.34;99097.72;12210678;19;20401;-85
2023/03/17 17:09:39;;;;;;;4.70;2.35;;;;;;;15.33;45.36;99103.00;12209989;19;20010;-85
2023/03/17 17:13:44;;;;;;;6.10;2.80;;;;;;;15.12;46.46;99107.19;12183639;19;20002;-84
2023/03/17 17:17:49;;;;;;;7.18;3.65;;;;;;;14.94;47.09;99104.06;12199143;19;20626;-85
2023/03/17 17:21:51;;;;;;;8.23;4.38;;;;;;;14.74;48.11;99102.34;12206499;19;20011;-83
2023/03/17 17:25:53;;;;;;;6.97;3.45;;;;;;;14.57;49.02;99097.28;12192822;19;20476;-85
2023/03/17 17:29:55;;;;;;;5.60;2.78;;;;;;;14.41;49.61;99101.28;12218022;19;20020;-84
2023/03/17 17:33:56;;;;;;;7.03;2.88;;;;;;;14.30;50.66;99108.03;12212832;19;20003;-86
2023/03/17 17:38:01;;;;;;;6.00;2.60;;;;;;;14.16;51.46;99104.28;12199477;19;20011;-85
2023/03/17 17:42:03;;;;;;;7.65;3.20;;;;;;;14.07;51.83;99101.34;12222895;19;20014;-87
2023/03/17 17:46:11;;;;;;;7.07;2.65;;;;;;;13.93;52.51;99090.09;12218288;19;20066;-85
2023/03/17 17:50:18;;;;;;;7.95;2.78;;;;;;;13.81;53.81;99095.19;12189116;19;20014;-85
2023/03/17 17:54:20;;;;;;;5.60;2.63;;;;;;;13.69;54.20;99095.53;12209267;19;20010;-84
2023/03/17 17:58:24;;;;;;;7.40;3.17;;;;;;;13.56;54.94;99108.06;12209745;19;20007;-85
2023/03/17 18:02:26;;;;;;;7.85;2.75;;;;;;;13.43;55.34;99111.47;12187539;19;20507;-84
2023/03/17 18:06:28;;;;;;;6.57;3.00;;;;;;;13.32;56.00;99126.47;12204870;19;20014;-84
2023/03/17 18:10:30;;;;;;;7.75;2.35;;;;;;;13.20;56.62;99126.78;12189838;19;20002;-84
2023/03/17 18:14:32;;;;;;;4.93;3.20;;;;;;;13.07;56.97;99131.00;12212650;19;20560;-84
2023/03/17 18:18:36;;;;;;;10.50;5.20;;;;;;;12.93;58.01;99127.16;12209682;19;20066;-84
2023/03/17 18:22:39;;;;;;;13.35;6.70;;;;;;;12.81;58.57;99138.53;12228223;19;20021;-88
2023/03/17 18:26:41;;;;;;;8.27;4.53;;;;;;;12.71;58.86;99138.56;12262014;19;20010;-85
2023/03/17 18:30:43;;;;;;;8.38;3.88;;;;;;;12.65;58.67;99132.22;12218755;19;20010;-85
2023/03/17 18:34:46;;;;;;;6.60;3.72;;;;;;;12.59;59.48;99138.88;12205678;19;20000;-86
2023/03/17 18:38:48;;;;;;;10.15;4.65;;;;;;;12.54;59.98;99136.13;12224368;19;20028;-85
2023/03/17 18:42:50;;;;;;;8.63;4.10;;;;;;;12.49;59.83;99133.34;12218099;19;20007;-85
2023/03/17 18:46:52;;;;;;;5.03;3.03;;;;;;;12.45;60.12;99135.84;12196339;19;20034;-84
2023/03/17 18:50:54;;;;;;;7.13;3.27;;;;;;;12.42;60.50;99130.88;12217582;19;20017;-84
2023/03/17 18:54:55;;;;;;;6.22;2.95;;;;;;;12.39;60.84;99134.22;12215002;19;20018;-84
2023/03/17 18:58:58;;;;;;;8.77;3.47;;;;;;;12.37;60.74;99130.06;12195040;19;20493;-84
2023/03/17 19:03:01;;;;;;;9.13;3.28;;;;;;;12.38;61.24;99126.22;12225394;19;20127;-86
2023/03/17 19:07:02;;;;;;;;;;;;;;;12.37;61.45;99135.59;12220229;19;20078;-84
2023/03/17 19:11:06;;;;;;;7.88;2.75;;;;;;;12.41;60.71;99126.47;12193806;19;19910;-86
2023/03/17 19:15:09;;;;;;;6.70;3.35;;;;;;;12.48;60.84;99126.19;12216526;19;20579;-85
2023/03/17 19:19:11;;;;;;;;;;;;;;;12.51;60.87;99131.16;12218410;19;20417;-85
2023/03/17 19:23:12;;;;;;;5.32;3.30;;;;;;;12.54;60.68;99119.53;12201054;19;20350;-84
2023/03/17 19:27:15;;;;;;;9.15;3.60;;;;;;;12.58;60.93;99128.09;12225111;19;20011;-85